sensor_id;sensor_type;location;lat;lon;timestamp;temperature;humidity
21121;DHT22;12519;43.318;21.898;2022-12-20T00:00:34;3.7;96.0
21121;DHT22;12519;43.318;21.898;2022-12-20T00:05:10;3.7;96.0
21121;DHT22;12519;43.318;21.898;2022-12-20T00:09:46;3.7;94.0
21121;DHT22;12519;43.318;21.898;2022-12-20T00:14:22;3.7;94.0
21121;DHT22;12519;43.318;21.898;2022-12-20T00:19:00;3.6;94.0
21121;DHT22;12519;43.318;21.898;2022-12-20T00:23:40;3.6;94.0
21121;DHT22;12519;43.318;21.898;2022-12-20T00:28:17;3.5;94.0
21121;DHT22;12519;43.318;21.898;2022-12-20T00:32:52;3.5;94.0
21121;DHT22;12519;43.318;21.898;2022-12-20T00:37:28;3.5;94.0
21121;DHT22;12519;43.318;21.898;2022-12-20T00:42:04;3.5;94.0
21121;DHT22;12519;43.318;21.898;2022-12-20T00:46:41;3.5;94.0
21121;DHT22;12519;43.318;21.898;2022-12-20T00:51:20;3.5;94.0
21121;DHT22;12519;43.318;21.898;2022-12-20T00:56:02;3.5;94.0
21121;DHT22;12519;43.318;21.898;2022-12-20T01:00:42;3.6;93.0
21121;DHT22;12519;43.318;21.898;2022-12-20T01:05:18;3.6;93.0
21121;DHT22;12519;43.318;21.898;2022-12-20T01:09:54;3.6;93.0
21121;DHT22;12519;43.318;21.898;2022-12-20T01:14:31;3.6;93.0
21121;DHT22;12519;43.318;21.898;2022-12-20T01:19:10;3.6;93.0
21121;DHT22;12519;43.318;21.898;2022-12-20T01:23:54;3.6;93.0
21121;DHT22;12519;43.318;21.898;2022-12-20T01:28:32;3.5;93.0
21121;DHT22;12519;43.318;21.898;2022-12-20T01:33:08;3.5;93.0
21121;DHT22;12519;43.318;21.898;2022-12-20T01:37:44;3.4;93.0
21121;DHT22;12519;43.318;21.898;2022-12-20T01:42:20;3.4;93.0
21121;DHT22;12519;43.318;21.898;2022-12-20T01:46:57;3.4;93.0
21121;DHT22;12519;43.318;21.898;2022-12-20T01:51:37;3.2;94.0
21121;DHT22;12519;43.318;21.898;2022-12-20T01:56:21;3.2;94.0
21121;DHT22;12519;43.318;21.898;2022-12-20T02:00:58;3.2;94.0
21121;DHT22;12519;43.318;21.898;2022-12-20T02:05:38;3.2;94.0
21121;DHT22;12519;43.318;21.898;2022-12-20T02:10:23;3.2;94.0
21121;DHT22;12519;43.318;21.898;2022-12-20T02:15:42;3.2;94.0
21121;DHT22;12519;43.318;21.898;2022-12-20T02:20:46;3.2;94.0
21121;DHT22;12519;43.318;21.898;2022-12-20T02:26:04;3.2;94.0
21121;DHT22;12519;43.318;21.898;2022-12-20T02:31:33;3.2;94.0
21121;DHT22;12519;43.318;21.898;2022-12-20T02:36:27;3.2;94.0
21121;DHT22;12519;43.318;21.898;2022-12-20T02:41:07;3.0;93.0
21121;DHT22;12519;43.318;21.898;2022-12-20T02:45:55;3.0;93.0
21121;DHT22;12519;43.318;21.898;2022-12-20T02:50:39;2.9;93.0
21121;DHT22;12519;43.318;21.898;2022-12-20T02:55:28;2.9;93.0
21121;DHT22;12519;43.318;21.898;2022-12-20T03:00:21;2.8;94.0
21121;DHT22;12519;43.318;21.898;2022-12-20T03:04:58;2.8;94.0
21121;DHT22;12519;43.318;21.898;2022-12-20T03:09:36;2.6;94.0
21121;DHT22;12519;43.318;21.898;2022-12-20T03:14:16;2.6;94.0
21121;DHT22;12519;43.318;21.898;2022-12-20T03:18:52;2.6;94.0
21121;DHT22;12519;43.318;21.898;2022-12-20T03:23:28;2.6;94.0
21121;DHT22;12519;43.318;21.898;2022-12-20T03:28:05;2.5;94.0
21121;DHT22;12519;43.318;21.898;2022-12-20T03:32:41;2.5;94.0
21121;DHT22;12519;43.318;21.898;2022-12-20T03:37:18;2.5;94.0
21121;DHT22;12519;43.318;21.898;2022-12-20T03:41:54;2.6;94.0
21121;DHT22;12519;43.318;21.898;2022-12-20T03:46:30;2.6;94.0
21121;DHT22;12519;43.318;21.898;2022-12-20T03:51:07;2.6;94.0
21121;DHT22;12519;43.318;21.898;2022-12-20T03:55:45;2.6;94.0
21121;DHT22;12519;43.318;21.898;2022-12-20T04:00:21;2.6;93.0
21121;DHT22;12519;43.318;21.898;2022-12-20T04:04:58;2.6;93.0
21121;DHT22;12519;43.318;21.898;2022-12-20T04:09:35;2.5;93.0
21121;DHT22;12519;43.318;21.898;2022-12-20T04:14:11;2.5;93.0
21121;DHT22;12519;43.318;21.898;2022-12-20T04:18:48;2.6;94.0
21121;DHT22;12519;43.318;21.898;2022-12-20T04:23:25;2.6;94.0
21121;DHT22;12519;43.318;21.898;2022-12-20T04:28:01;2.6;94.0
21121;DHT22;12519;43.318;21.898;2022-12-20T04:32:37;2.6;94.0
21121;DHT22;12519;43.318;21.898;2022-12-20T04:37:14;2.6;94.0
21121;DHT22;12519;43.318;21.898;2022-12-20T04:41:50;3.4;94.0
21121;DHT22;12519;43.318;21.898;2022-12-20T04:46:26;3.4;94.0
21121;DHT22;12519;43.318;21.898;2022-12-20T04:51:03;4.3;94.0
21121;DHT22;12519;43.318;21.898;2022-12-20T04:55:40;4.3;94.0
21121;DHT22;12519;43.318;21.898;2022-12-20T05:00:17;3.2;94.0
21121;DHT22;12519;43.318;21.898;2022-12-20T05:04:55;3.2;94.0
21121;DHT22;12519;43.318;21.898;2022-12-20T05:09:32;2.2;94.0
21121;DHT22;12519;43.318;21.898;2022-12-20T05:14:08;2.2;94.0
21121;DHT22;12519;43.318;21.898;2022-12-20T05:18:44;1.8;96.0
21121;DHT22;12519;43.318;21.898;2022-12-20T05:23:20;1.8;96.0
21121;DHT22;12519;43.318;21.898;2022-12-20T05:27:56;1.5;97.0
21121;DHT22;12519;43.318;21.898;2022-12-20T05:32:33;1.5;97.0
21121;DHT22;12519;43.318;21.898;2022-12-20T05:37:09;1.5;97.0
21121;DHT22;12519;43.318;21.898;2022-12-20T05:41:45;2.8;96.0
21121;DHT22;12519;43.318;21.898;2022-12-20T05:46:20;2.8;96.0
21121;DHT22;12519;43.318;21.898;2022-12-20T05:50:57;4.1;95.0
21121;DHT22;12519;43.318;21.898;2022-12-20T05:55:33;4.1;95.0
21121;DHT22;12519;43.318;21.898;2022-12-20T06:00:10;3.4;95.0
21121;DHT22;12519;43.318;21.898;2022-12-20T06:04:49;3.4;95.0
21121;DHT22;12519;43.318;21.898;2022-12-20T06:09:25;2.6;94.0
21121;DHT22;12519;43.318;21.898;2022-12-20T06:14:01;2.6;94.0
21121;DHT22;12519;43.318;21.898;2022-12-20T06:18:38;2.4;95.0
21121;DHT22;12519;43.318;21.898;2022-12-20T06:23:14;2.4;95.0
21121;DHT22;12519;43.318;21.898;2022-12-20T06:27:51;2.4;95.0
21121;DHT22;12519;43.318;21.898;2022-12-20T06:32:27;2.1;96.0
21121;DHT22;12519;43.318;21.898;2022-12-20T06:37:04;2.1;96.0
21121;DHT22;12519;43.318;21.898;2022-12-20T06:41:40;2.0;96.0
21121;DHT22;12519;43.318;21.898;2022-12-20T06:46:16;2.0;96.0
21121;DHT22;12519;43.318;21.898;2022-12-20T06:50:53;2.0;97.0
21121;DHT22;12519;43.318;21.898;2022-12-20T06:55:29;2.0;97.0
21121;DHT22;12519;43.318;21.898;2022-12-20T07:00:07;2.0;96.0
21121;DHT22;12519;43.318;21.898;2022-12-20T07:04:46;2.0;96.0
21121;DHT22;12519;43.318;21.898;2022-12-20T07:09:23;1.9;96.0
21121;DHT22;12519;43.318;21.898;2022-12-20T07:13:59;1.9;96.0
21121;DHT22;12519;43.318;21.898;2022-12-20T07:18:35;1.7;97.0
21121;DHT22;12519;43.318;21.898;2022-12-20T07:23:11;1.7;97.0
21121;DHT22;12519;43.318;21.898;2022-12-20T07:27:48;1.7;97.0
21121;DHT22;12519;43.318;21.898;2022-12-20T07:32:25;1.5;97.0
21121;DHT22;12519;43.318;21.898;2022-12-20T07:37:02;1.5;97.0
21121;DHT22;12519;43.318;21.898;2022-12-20T07:41:39;2.0;96.0
21121;DHT22;12519;43.318;21.898;2022-12-20T07:46:16;2.0;96.0
21121;DHT22;12519;43.318;21.898;2022-12-20T07:50:57;2.4;95.0
21121;DHT22;12519;43.318;21.898;2022-12-20T07:55:44;2.4;95.0
21121;DHT22;12519;43.318;21.898;2022-12-20T08:00:23;2.8;94.0
21121;DHT22;12519;43.318;21.898;2022-12-20T08:04:59;2.8;94.0
21121;DHT22;12519;43.318;21.898;2022-12-20T08:09:40;3.3;92.0
21121;DHT22;12519;43.318;21.898;2022-12-20T08:14:20;3.3;92.0
21121;DHT22;12519;43.318;21.898;2022-12-20T08:18:56;3.8;92.0
21121;DHT22;12519;43.318;21.898;2022-12-20T08:23:33;3.8;92.0
21121;DHT22;12519;43.318;21.898;2022-12-20T08:28:09;3.8;92.0
21121;DHT22;12519;43.318;21.898;2022-12-20T08:32:45;4.3;91.0
21121;DHT22;12519;43.318;21.898;2022-12-20T08:37:22;4.3;91.0
21121;DHT22;12519;43.318;21.898;2022-12-20T08:41:58;4.6;90.0
21121;DHT22;12519;43.318;21.898;2022-12-20T08:46:34;4.6;90.0
21121;DHT22;12519;43.318;21.898;2022-12-20T08:51:10;5.0;89.0
21121;DHT22;12519;43.318;21.898;2022-12-20T08:55:47;5.0;89.0
21121;DHT22;12519;43.318;21.898;2022-12-20T09:00:23;5.2;88.0
21121;DHT22;12519;43.318;21.898;2022-12-20T09:05:00;5.2;88.0
21121;DHT22;12519;43.318;21.898;2022-12-20T09:09:36;5.3;88.0
21121;DHT22;12519;43.318;21.898;2022-12-20T09:14:13;5.3;88.0
21121;DHT22;12519;43.318;21.898;2022-12-20T09:18:50;5.6;88.0
21121;DHT22;12519;43.318;21.898;2022-12-20T09:23:34;5.6;88.0
21121;DHT22;12519;43.318;21.898;2022-12-20T09:28:14;5.6;88.0
21121;DHT22;12519;43.318;21.898;2022-12-20T09:32:51;5.9;88.0
21121;DHT22;12519;43.318;21.898;2022-12-20T09:37:28;5.9;88.0
21121;DHT22;12519;43.318;21.898;2022-12-20T09:42:06;5.9;88.0
21121;DHT22;12519;43.318;21.898;2022-12-20T09:46:46;5.9;88.0
21121;DHT22;12519;43.318;21.898;2022-12-20T09:51:42;5.9;88.0
21121;DHT22;12519;43.318;21.898;2022-12-20T09:56:56;5.9;88.0
21121;DHT22;12519;43.318;21.898;2022-12-20T10:01:48;5.7;88.0
21121;DHT22;12519;43.318;21.898;2022-12-20T10:06:34;5.7;88.0
21121;DHT22;12519;43.318;21.898;2022-12-20T10:11:57;5.5;88.0
21121;DHT22;12519;43.318;21.898;2022-12-20T10:17:12;5.5;88.0
21121;DHT22;12519;43.318;21.898;2022-12-20T10:22:20;5.2;89.0
21121;DHT22;12519;43.318;21.898;2022-12-20T10:27:17;5.2;89.0
21121;DHT22;12519;43.318;21.898;2022-12-20T10:31:59;4.9;90.0
21121;DHT22;12519;43.318;21.898;2022-12-20T10:36:48;4.9;90.0
21121;DHT22;12519;43.318;21.898;2022-12-20T10:41:49;4.9;90.0
21121;DHT22;12519;43.318;21.898;2022-12-20T10:46:34;4.9;90.0
21121;DHT22;12519;43.318;21.898;2022-12-20T10:51:20;4.9;90.0
21121;DHT22;12519;43.318;21.898;2022-12-20T10:56:17;4.9;90.0
21121;DHT22;12519;43.318;21.898;2022-12-20T11:01:09;5.4;89.0
21121;DHT22;12519;43.318;21.898;2022-12-20T11:05:54;5.4;89.0
21121;DHT22;12519;43.318;21.898;2022-12-20T11:10:34;6.0;89.0
21121;DHT22;12519;43.318;21.898;2022-12-20T11:15:19;6.0;89.0
21121;DHT22;12519;43.318;21.898;2022-12-20T11:20:24;6.3;87.0
21121;DHT22;12519;43.318;21.898;2022-12-20T11:25:28;6.3;87.0
21121;DHT22;12519;43.318;21.898;2022-12-20T11:30:29;6.6;85.0
21121;DHT22;12519;43.318;21.898;2022-12-20T11:35:25;6.6;85.0
21121;DHT22;12519;43.318;21.898;2022-12-20T11:40:30;6.9;83.0
21121;DHT22;12519;43.318;21.898;2022-12-20T11:45:30;6.9;83.0
21121;DHT22;12519;43.318;21.898;2022-12-20T11:51:03;7.2;81.0
21121;DHT22;12519;43.318;21.898;2022-12-20T11:56:08;7.2;81.0
21121;DHT22;12519;43.318;21.898;2022-12-20T12:01:07;7.6;78.0
21121;DHT22;12519;43.318;21.898;2022-12-20T12:06:00;7.6;78.0
21121;DHT22;12519;43.318;21.898;2022-12-20T12:11:00;7.9;76.0
21121;DHT22;12519;43.318;21.898;2022-12-20T12:15:51;7.9;76.0
21121;DHT22;12519;43.318;21.898;2022-12-20T12:20:44;8.0;74.0
21121;DHT22;12519;43.318;21.898;2022-12-20T12:25:34;8.0;74.0
21121;DHT22;12519;43.318;21.898;2022-12-20T12:30:12;8.2;73.0
21121;DHT22;12519;43.318;21.898;2022-12-20T12:35:02;8.2;73.0
21121;DHT22;12519;43.318;21.898;2022-12-20T12:41:10;8.4;72.0
21121;DHT22;12519;43.318;21.898;2022-12-20T12:46:21;8.4;72.0
21121;DHT22;12519;43.318;21.898;2022-12-20T12:51:10;8.5;72.0
21121;DHT22;12519;43.318;21.898;2022-12-20T12:56:28;8.5;72.0
21121;DHT22;12519;43.318;21.898;2022-12-20T13:01:46;8.6;73.0
21121;DHT22;12519;43.318;21.898;2022-12-20T13:07:02;8.6;73.0
21121;DHT22;12519;43.318;21.898;2022-12-20T13:12:56;8.7;74.0
21121;DHT22;12519;43.318;21.898;2022-12-20T13:17:45;8.7;74.0
21121;DHT22;12519;43.318;21.898;2022-12-20T13:22:28;10.4;76.0
21121;DHT22;12519;43.318;21.898;2022-12-20T13:27:36;10.4;76.0
21121;DHT22;12519;43.318;21.898;2022-12-20T13:32:53;12.2;78.0
21121;DHT22;12519;43.318;21.898;2022-12-20T13:37:53;12.2;78.0
21121;DHT22;12519;43.318;21.898;2022-12-20T13:42:37;11.0;72.0
21121;DHT22;12519;43.318;21.898;2022-12-20T13:47:30;11.0;72.0
21121;DHT22;12519;43.318;21.898;2022-12-20T13:52:20;9.9;66.0
21121;DHT22;12519;43.318;21.898;2022-12-20T13:57:05;9.9;66.0
21121;DHT22;12519;43.318;21.898;2022-12-20T14:01:47;9.4;66.0
21121;DHT22;12519;43.318;21.898;2022-12-20T14:06:30;9.4;66.0
21121;DHT22;12519;43.318;21.898;2022-12-20T14:11:09;9.0;67.0
21121;DHT22;12519;43.318;21.898;2022-12-20T14:15:51;9.0;67.0
21121;DHT22;12519;43.318;21.898;2022-12-20T14:20:31;8.6;67.0
21121;DHT22;12519;43.318;21.898;2022-12-20T14:25:15;8.6;67.0
21121;DHT22;12519;43.318;21.898;2022-12-20T14:30:25;8.3;68.0
21121;DHT22;12519;43.318;21.898;2022-12-20T14:35:19;8.3;68.0
21121;DHT22;12519;43.318;21.898;2022-12-20T14:40:00;8.3;70.0
21121;DHT22;12519;43.318;21.898;2022-12-20T14:45:02;8.3;70.0
21121;DHT22;12519;43.318;21.898;2022-12-20T14:49:57;8.3;72.0
21121;DHT22;12519;43.318;21.898;2022-12-20T14:54:59;8.3;72.0
21121;DHT22;12519;43.318;21.898;2022-12-20T14:59:56;8.0;71.0
21121;DHT22;12519;43.318;21.898;2022-12-20T15:04:38;8.0;71.0
21121;DHT22;12519;43.318;21.898;2022-12-20T15:09:14;7.7;70.0
21121;DHT22;12519;43.318;21.898;2022-12-20T15:13:52;7.7;70.0
21121;DHT22;12519;43.318;21.898;2022-12-20T15:18:31;7.7;70.0
21121;DHT22;12519;43.318;21.898;2022-12-20T15:23:12;7.3;71.0
21121;DHT22;12519;43.318;21.898;2022-12-20T15:27:54;7.3;71.0
21121;DHT22;12519;43.318;21.898;2022-12-20T15:32:30;6.9;72.0
21121;DHT22;12519;43.318;21.898;2022-12-20T15:37:10;6.9;72.0
21121;DHT22;12519;43.318;21.898;2022-12-20T15:41:51;6.8;72.0
21121;DHT22;12519;43.318;21.898;2022-12-20T15:46:29;6.8;72.0
21121;DHT22;12519;43.318;21.898;2022-12-20T15:51:14;6.6;73.0
21121;DHT22;12519;43.318;21.898;2022-12-20T15:56:04;6.6;73.0
21121;DHT22;12519;43.318;21.898;2022-12-20T16:00:49;6.5;73.0
21121;DHT22;12519;43.318;21.898;2022-12-20T16:05:32;6.5;73.0
21121;DHT22;12519;43.318;21.898;2022-12-20T16:10:11;6.4;74.0
21121;DHT22;12519;43.318;21.898;2022-12-20T16:14:48;6.4;74.0
21121;DHT22;12519;43.318;21.898;2022-12-20T16:19:24;6.2;74.0
21121;DHT22;12519;43.318;21.898;2022-12-20T16:24:01;6.2;74.0
21121;DHT22;12519;43.318;21.898;2022-12-20T16:28:38;6.2;74.0
21121;DHT22;12519;43.318;21.898;2022-12-20T16:33:17;6.1;74.0
21121;DHT22;12519;43.318;21.898;2022-12-20T16:37:56;6.1;74.0
21121;DHT22;12519;43.318;21.898;2022-12-20T16:42:34;5.8;75.0
21121;DHT22;12519;43.318;21.898;2022-12-20T16:47:10;5.8;75.0
21121;DHT22;12519;43.318;21.898;2022-12-20T16:51:47;5.6;75.0
21121;DHT22;12519;43.318;21.898;2022-12-20T16:56:24;5.6;75.0
21121;DHT22;12519;43.318;21.898;2022-12-20T17:01:03;5.5;76.0
21121;DHT22;12519;43.318;21.898;2022-12-20T17:05:40;5.5;76.0
21121;DHT22;12519;43.318;21.898;2022-12-20T17:10:17;5.4;77.0
21121;DHT22;12519;43.318;21.898;2022-12-20T17:14:53;5.4;77.0
21121;DHT22;12519;43.318;21.898;2022-12-20T17:19:30;5.4;77.0
21121;DHT22;12519;43.318;21.898;2022-12-20T17:24:15;5.4;77.0
21121;DHT22;12519;43.318;21.898;2022-12-20T17:28:56;5.4;77.0
21121;DHT22;12519;43.318;21.898;2022-12-20T17:33:33;5.3;77.0
21121;DHT22;12519;43.318;21.898;2022-12-20T17:38:10;5.3;77.0
21121;DHT22;12519;43.318;21.898;2022-12-20T17:42:46;5.3;77.0
21121;DHT22;12519;43.318;21.898;2022-12-20T17:47:22;5.3;77.0
21121;DHT22;12519;43.318;21.898;2022-12-20T17:51:58;5.3;77.0
21121;DHT22;12519;43.318;21.898;2022-12-20T17:56:35;5.3;77.0
21121;DHT22;12519;43.318;21.898;2022-12-20T18:01:16;5.2;77.0
21121;DHT22;12519;43.318;21.898;2022-12-20T18:05:54;5.2;77.0
21121;DHT22;12519;43.318;21.898;2022-12-20T18:10:31;5.2;77.0
21121;DHT22;12519;43.318;21.898;2022-12-20T18:15:07;5.2;77.0
21121;DHT22;12519;43.318;21.898;2022-12-20T18:19:46;5.2;77.0
21121;DHT22;12519;43.318;21.898;2022-12-20T18:24:22;5.2;77.0
21121;DHT22;12519;43.318;21.898;2022-12-20T18:29:00;5.2;77.0
21121;DHT22;12519;43.318;21.898;2022-12-20T18:33:38;5.2;77.0
21121;DHT22;12519;43.318;21.898;2022-12-20T18:38:15;5.2;77.0
21121;DHT22;12519;43.318;21.898;2022-12-20T18:42:51;5.2;77.0
21121;DHT22;12519;43.318;21.898;2022-12-20T18:47:29;5.2;77.0
21121;DHT22;12519;43.318;21.898;2022-12-20T18:52:06;5.1;77.0
21121;DHT22;12519;43.318;21.898;2022-12-20T18:56:42;5.1;77.0
21121;DHT22;12519;43.318;21.898;2022-12-20T19:01:19;5.1;77.0
21121;DHT22;12519;43.318;21.898;2022-12-20T19:05:59;5.1;77.0
21121;DHT22;12519;43.318;21.898;2022-12-20T19:10:35;5.1;77.0
21121;DHT22;12519;43.318;21.898;2022-12-20T19:15:11;5.1;77.0
21121;DHT22;12519;43.318;21.898;2022-12-20T19:19:47;5.0;77.0
21121;DHT22;12519;43.318;21.898;2022-12-20T19:24:22;5.0;77.0
21121;DHT22;12519;43.318;21.898;2022-12-20T19:28:59;5.0;77.0
21121;DHT22;12519;43.318;21.898;2022-12-20T19:33:35;4.9;77.0
21121;DHT22;12519;43.318;21.898;2022-12-20T19:38:13;4.9;77.0
21121;DHT22;12519;43.318;21.898;2022-12-20T19:42:49;4.8;78.0
21121;DHT22;12519;43.318;21.898;2022-12-20T19:47:26;4.8;78.0
21121;DHT22;12519;43.318;21.898;2022-12-20T19:52:03;4.8;78.0
21121;DHT22;12519;43.318;21.898;2022-12-20T19:56:41;4.8;78.0
21121;DHT22;12519;43.318;21.898;2022-12-20T20:01:18;4.8;78.0
21121;DHT22;12519;43.318;21.898;2022-12-20T20:05:59;4.8;78.0
21121;DHT22;12519;43.318;21.898;2022-12-20T20:10:38;4.7;78.0
21121;DHT22;12519;43.318;21.898;2022-12-20T20:15:14;4.7;78.0
21121;DHT22;12519;43.318;21.898;2022-12-20T20:19:50;4.7;78.0
21121;DHT22;12519;43.318;21.898;2022-12-20T20:24:26;4.6;78.0
21121;DHT22;12519;43.318;21.898;2022-12-20T20:29:02;4.6;78.0
21121;DHT22;12519;43.318;21.898;2022-12-20T20:33:38;4.6;78.0
21121;DHT22;12519;43.318;21.898;2022-12-20T20:38:14;4.6;78.0
21121;DHT22;12519;43.318;21.898;2022-12-20T20:42:50;4.6;78.0
21121;DHT22;12519;43.318;21.898;2022-12-20T20:47:26;4.6;78.0
21121;DHT22;12519;43.318;21.898;2022-12-20T20:52:02;4.5;78.0
21121;DHT22;12519;43.318;21.898;2022-12-20T20:56:39;4.5;78.0
21121;DHT22;12519;43.318;21.898;2022-12-20T21:01:15;4.6;78.0
21121;DHT22;12519;43.318;21.898;2022-12-20T21:05:51;4.6;78.0
21121;DHT22;12519;43.318;21.898;2022-12-20T21:10:27;4.6;78.0
21121;DHT22;12519;43.318;21.898;2022-12-20T21:15:04;4.6;78.0
21121;DHT22;12519;43.318;21.898;2022-12-20T21:19:43;4.6;78.0
21121;DHT22;12519;43.318;21.898;2022-12-20T21:24:19;4.7;79.0
21121;DHT22;12519;43.318;21.898;2022-12-20T21:28:55;4.7;79.0
21121;DHT22;12519;43.318;21.898;2022-12-20T21:33:34;4.8;79.0
21121;DHT22;12519;43.318;21.898;2022-12-20T21:38:09;4.8;79.0
21121;DHT22;12519;43.318;21.898;2022-12-20T21:42:45;4.8;79.0
21121;DHT22;12519;43.318;21.898;2022-12-20T21:47:21;4.8;79.0
21121;DHT22;12519;43.318;21.898;2022-12-20T21:51:57;4.8;79.0
21121;DHT22;12519;43.318;21.898;2022-12-20T21:56:34;4.8;79.0
21121;DHT22;12519;43.318;21.898;2022-12-20T22:01:10;4.8;79.0
21121;DHT22;12519;43.318;21.898;2022-12-20T22:05:50;4.8;79.0
21121;DHT22;12519;43.318;21.898;2022-12-20T22:10:29;4.9;79.0
21121;DHT22;12519;43.318;21.898;2022-12-20T22:15:07;4.9;79.0
21121;DHT22;12519;43.318;21.898;2022-12-20T22:19:45;4.9;79.0
21121;DHT22;12519;43.318;21.898;2022-12-20T22:24:21;5.1;83.0
21121;DHT22;12519;43.318;21.898;2022-12-20T22:29:00;5.1;83.0
21121;DHT22;12519;43.318;21.898;2022-12-20T22:33:42;5.2;86.0
21121;DHT22;12519;43.318;21.898;2022-12-20T22:38:20;5.2;86.0
21121;DHT22;12519;43.318;21.898;2022-12-20T22:42:56;5.4;86.0
21121;DHT22;12519;43.318;21.898;2022-12-20T22:47:33;5.4;86.0
21121;DHT22;12519;43.318;21.898;2022-12-20T22:52:11;5.5;87.0
21121;DHT22;12519;43.318;21.898;2022-12-20T22:56:47;5.5;87.0
21121;DHT22;12519;43.318;21.898;2022-12-20T23:01:23;5.2;88.0
21121;DHT22;12519;43.318;21.898;2022-12-20T23:06:02;5.2;88.0
21121;DHT22;12519;43.318;21.898;2022-12-20T23:10:44;4.9;88.0
21121;DHT22;12519;43.318;21.898;2022-12-20T23:15:21;4.9;88.0
21121;DHT22;12519;43.318;21.898;2022-12-20T23:19:57;4.9;88.0
21121;DHT22;12519;43.318;21.898;2022-12-20T23:24:33;5.0;89.0
21121;DHT22;12519;43.318;21.898;2022-12-20T23:29:10;5.0;89.0
21121;DHT22;12519;43.318;21.898;2022-12-20T23:33:46;5.0;89.0
21121;DHT22;12519;43.318;21.898;2022-12-20T23:38:23;5.0;89.0
21121;DHT22;12519;43.318;21.898;2022-12-20T23:42:59;4.9;89.0
21121;DHT22;12519;43.318;21.898;2022-12-20T23:47:35;4.9;89.0
21121;DHT22;12519;43.318;21.898;2022-12-20T23:52:12;4.8;90.0
21121;DHT22;12519;43.318;21.898;2022-12-20T23:56:48;4.8;90.0
